Time;durP1;ratioP1;P1;durP2;ratioP2;P2;SDS_P1;SDS_P2;PMS_P1;PMS_P2;Temp;Humidity;BMP_temperature;BMP_pressure;BME280_temperature;BME280_humidity;BME280_pressure;Samples;Min_cycle;Max_cycle;Signal;HPM_P1;HPM_P2
2020/12/30 00:01:23;;;;;;;39.00;4.30;;;;;;;5.27;75.14;99137.63;1796001;79;21628;-43
2020/12/30 00:03:51;;;;;;;60.38;5.03;;;;;;;5.20;75.35;99141.63;1796447;79;21625;-44
2020/12/30 00:06:20;;;;;;;8.53;3.35;;;;;;;5.16;75.50;99143.95;1796357;79;21146;-44
2020/12/30 00:08:49;;;;;;;11.83;3.52;;;;;;;5.13;75.49;99149.41;1796384;79;21163;-44
2020/12/30 00:11:17;;;;;;;28.47;3.80;;;;;;;5.15;75.45;99159.30;1796404;79;21397;-44
2020/12/30 00:13:46;;;;;;;26.10;3.80;;;;;;;5.16;75.63;99166.80;1796199;79;21267;-44
2020/12/30 00:16:14;;;;;;;26.20;3.72;;;;;;;5.19;75.70;99168.82;1783866;79;21171;-44
2020/12/30 00:18:42;;;;;;;30.50;4.03;;;;;;;5.18;75.66;99168.03;1758197;81;21049;-44
2020/12/30 00:21:10;;;;;;;6.75;3.20;;;;;;;5.15;75.67;99178.66;1802168;79;21553;-44
2020/12/30 00:23:39;;;;;;;7.08;3.40;;;;;;;5.13;75.80;99176.88;1802102;79;21142;-43
2020/12/30 00:26:08;;;;;;;9.13;3.20;;;;;;;5.22;75.82;99180.28;1802428;79;21349;-44
2020/12/30 00:28:37;;;;;;;15.50;3.40;;;;;;;5.27;75.82;99168.54;1796962;79;21152;-44
2020/12/30 00:31:06;;;;;;;33.95;4.50;;;;;;;5.28;75.95;99169.53;1769489;79;21163;-44
2020/12/30 00:33:34;;;;;;;39.08;4.37;;;;;;;5.32;76.03;99165.66;1764977;81;21210;-43
2020/12/30 00:36:03;;;;;;;9.55;3.67;;;;;;;5.32;75.99;99159.72;1766683;78;21099;-44
2020/12/30 00:38:31;;;;;;;12.10;3.60;;;;;;;5.34;76.02;99153.44;1796387;79;21190;-44
2020/12/30 00:40:59;;;;;;;20.62;4.35;;;;;;;5.41;75.93;99145.64;1796291;79;21175;-43
2020/12/30 00:43:28;;;;;;;33.40;4.00;;;;;;;5.44;75.97;99143.62;1779562;79;21474;-44
2020/12/30 00:45:57;;;;;;;28.83;3.90;;;;;;;5.41;76.04;99144.86;1766830;80;21595;-44
2020/12/30 00:48:25;;;;;;;7.85;3.65;;;;;;;5.35;76.21;99145.61;1729832;81;21156;-43
2020/12/30 00:50:54;;;;;;;17.90;3.30;;;;;;;5.35;76.34;99152.89;1728400;83;21372;-43
2020/12/30 00:53:22;;;;;;;15.75;3.20;;;;;;;5.39;76.31;99158.62;1728223;83;21143;-44
2020/12/30 00:55:51;;;;;;;21.37;3.15;;;;;;;5.40;76.43;99154.82;1728360;83;21063;-44
2020/12/30 00:58:21;;;;;;;;;;;;;;;5.36;76.67;99154.47;1731917;81;21198;-43
2020/12/30 01:00:49;;;;;;;14.35;3.22;;;;;;;5.36;76.84;99155.81;1706663;83;20302;-44
2020/12/30 01:03:25;;;;;;;20.02;3.15;;;;;;;5.28;77.16;99145.93;1725106;81;21457;-44
2020/12/30 01:05:53;;;;;;;10.75;2.87;;;;;;;5.38;77.10;99147.63;1764412;79;21179;-44
2020/12/30 01:08:22;;;;;;;15.75;3.60;;;;;;;5.50;76.95;99154.97;1789688;78;21150;-43
2020/12/30 01:10:51;;;;;;;19.07;3.22;;;;;;;5.51;77.13;99159.23;1793302;79;21631;-44
2020/12/30 01:13:20;;;;;;;28.92;3.30;;;;;;;5.53;77.16;99160.47;1764933;80;21151;-44
2020/12/30 01:15:48;;;;;;;6.37;3.00;;;;;;;5.55;77.13;99166.31;1784737;80;21583;-43
2020/12/30 01:18:16;;;;;;;7.12;3.02;;;;;;;5.62;77.01;99159.82;1725222;81;21146;-44
2020/12/30 01:20:44;;;;;;;8.75;2.62;;;;;;;5.66;76.95;99158.04;1731750;82;21116;-44
2020/12/30 01:23:13;;;;;;;15.60;2.85;;;;;;;5.67;77.07;99164.20;1722263;83;21107;-44
2020/12/30 01:25:41;;;;;;;15.43;2.95;;;;;;;5.64;77.36;99163.53;1741982;82;21461;-43
2020/12/30 01:28:09;;;;;;;9.33;2.98;;;;;;;5.59;77.53;99169.91;1722270;83;23506;-44
2020/12/30 01:30:38;;;;;;;10.18;3.12;;;;;;;5.65;77.58;99168.59;1741823;82;21165;-44
2020/12/30 01:33:06;;;;;;;11.33;2.98;;;;;;;5.74;77.52;99163.68;1722106;83;21149;-44
2020/12/30 01:35:35;;;;;;;12.78;3.12;;;;;;;5.79;77.52;99182.30;1741864;82;21120;-44
2020/12/30 01:38:03;;;;;;;16.85;4.12;;;;;;;5.82;77.63;99179.72;1701675;83;21183;-44
2020/12/30 01:40:31;;;;;;;5.75;3.80;;;;;;;5.84;77.50;99165.39;1742736;82;21395;-44
2020/12/30 01:43:00;;;;;;;8.35;3.80;;;;;;;5.87;77.40;99162.06;1796374;79;21135;-44
2020/12/30 01:45:28;;;;;;;9.08;3.70;;;;;;;5.95;77.30;99161.75;1758563;79;21198;-44
2020/12/30 01:47:58;;;;;;;9.70;3.55;;;;;;;5.99;77.34;99155.93;1774652;79;21158;-43
2020/12/30 01:50:26;;;;;;;4.25;3.10;;;;;;;5.99;77.41;99149.20;1795612;79;21123;-43
2020/12/30 01:52:54;;;;;;;6.55;3.62;;;;;;;5.97;77.48;99150.09;1768723;79;21267;-44
2020/12/30 01:55:23;;;;;;;6.08;3.60;;;;;;;5.95;77.44;99138.33;1794499;79;21174;-44
2020/12/30 01:57:51;;;;;;;9.15;4.10;;;;;;;5.98;77.41;99140.90;1761296;81;21625;-43
2020/12/30 02:00:20;;;;;;;5.42;4.50;;;;;;;5.93;77.61;99149.19;1772180;81;21199;-44
2020/12/30 02:02:54;;;;;;;9.30;3.70;;;;;;;5.89;77.89;99153.11;1727689;81;21500;-44
2020/12/30 02:05:22;;;;;;;5.05;3.95;;;;;;;5.91;77.91;99152.20;1743604;82;21416;-43
2020/12/30 02:07:51;;;;;;;9.93;4.05;;;;;;;5.92;77.93;99146.27;1746998;81;21201;-43
2020/12/30 02:10:19;;;;;;;9.33;4.28;;;;;;;5.89;78.14;99142.91;1735307;81;22181;-44
2020/12/30 02:12:49;;;;;;;9.08;4.22;;;;;;;5.83;78.49;99138.27;1740372;81;21039;-44
2020/12/30 02:15:28;;;;;;;7.17;4.87;;;;;;;5.85;78.69;99146.01;1724179;81;21191;-43
2020/12/30 02:18:00;;;;;;;8.08;4.33;;;;;;;5.88;78.71;99142.11;1750873;81;21159;-44
2020/12/30 02:20:30;;;;;;;9.55;5.45;;;;;;;5.88;78.90;99151.53;1751868;81;21023;-43
2020/12/30 02:23:08;;;;;;;5.67;4.80;;;;;;;5.86;79.10;99143.52;1753096;81;21181;-43
2020/12/30 02:25:37;;;;;;;10.08;5.33;;;;;;;5.87;79.09;99149.16;1753041;81;21142;-43
2020/12/30 02:28:06;;;;;;;7.62;5.00;;;;;;;5.90;79.29;99148.52;1753153;81;21031;-44
2020/12/30 02:30:34;;;;;;;8.33;5.55;;;;;;;5.90;79.49;99156.03;1753004;81;21192;-44
2020/12/30 02:33:08;;;;;;;9.53;5.35;;;;;;;5.92;79.67;99147.05;1753069;81;21597;-44
2020/12/30 02:35:36;;;;;;;6.00;5.00;;;;;;;6.02;79.63;99159.29;1724425;81;21146;-44
2020/12/30 02:38:05;;;;;;;8.23;5.20;;;;;;;6.21;79.42;99158.19;1739004;81;21150;-44
2020/12/30 02:40:33;;;;;;;7.95;5.12;;;;;;;6.36;79.21;99153.50;1723032;81;21186;-44
2020/12/30 02:43:01;;;;;;;9.83;5.58;;;;;;;6.48;78.93;99144.09;1728383;81;21376;-44
2020/12/30 02:45:30;;;;;;;7.55;5.22;;;;;;;6.59;78.58;99154.38;1722550;83;21162;-44
2020/12/30 02:47:58;;;;;;;7.37;5.00;;;;;;;6.69;78.17;99147.20;1740874;81;21190;-44
2020/12/30 02:50:26;;;;;;;9.68;5.25;;;;;;;6.82;77.81;99148.77;1752733;81;21190;-44
2020/12/30 02:52:55;;;;;;;9.70;5.40;;;;;;;6.91;77.54;99143.48;1753068;81;21154;-44
2020/12/30 02:55:23;;;;;;;13.75;6.25;;;;;;;6.98;77.28;99138.84;1746699;81;21437;-44
2020/12/30 02:57:51;;;;;;;12.93;6.42;;;;;;;7.00;77.05;99132.56;1717432;83;21223;-44
2020/12/30 03:00:21;;;;;;;7.47;5.42;;;;;;;6.99;76.79;99129.63;1725149;82;21190;-43
2020/12/30 03:02:50;;;;;;;7.70;5.83;;;;;;;6.96;76.64;99133.02;1706671;84;21236;-44
2020/12/30 03:05:18;;;;;;;15.70;6.20;;;;;;;6.97;76.65;99131.91;1715646;83;21143;-44
2020/12/30 03:07:49;;;;;;;14.35;6.75;;;;;;;6.98;76.75;99135.58;1697720;84;21211;-44
2020/12/30 03:10:17;;;;;;;17.48;6.85;;;;;;;6.95;76.74;99135.48;1687166;85;21098;-44
2020/12/30 03:12:45;;;;;;;8.60;6.22;;;;;;;6.88;76.91;99131.22;1697890;84;21737;-42
2020/12/30 03:15:13;;;;;;;8.55;6.53;;;;;;;6.89;77.14;99140.88;1685276;85;22194;-41
2020/12/30 03:17:42;;;;;;;10.55;6.42;;;;;;;6.98;76.98;99130.19;1673251;85;21206;-42
2020/12/30 03:20:10;;;;;;;13.10;7.10;;;;;;;7.05;76.89;99128.84;1683821;85;21422;-42
2020/12/30 03:22:39;;;;;;;12.80;6.53;;;;;;;7.09;76.83;99127.81;1712588;83;21620;-42
2020/12/30 03:25:07;;;;;;;9.25;6.90;;;;;;;7.13;76.78;99132.73;1705427;83;21052;-41
2020/12/30 03:27:35;;;;;;;9.68;6.85;;;;;;;7.17;76.50;99122.84;1710824;83;21165;-41
2020/12/30 03:30:05;;;;;;;12.63;7.60;;;;;;;7.20;76.37;99118.13;1684986;83;21171;-41
2020/12/30 03:32:33;;;;;;;10.00;7.83;;;;;;;7.24;76.47;99114.17;1673444;83;22265;-41
2020/12/30 03:35:02;;;;;;;11.65;8.50;;;;;;;7.23;76.54;99110.69;1692689;84;21604;-41
2020/12/30 03:37:30;;;;;;;9.70;8.00;;;;;;;7.24;76.57;99104.73;1703256;84;21219;-42
2020/12/30 03:39:58;;;;;;;10.90;7.87;;;;;;;7.25;76.51;99101.70;1692762;84;21150;-42
2020/12/30 03:42:27;;;;;;;15.05;9.10;;;;;;;7.29;76.51;99103.93;1703295;84;21175;-41
2020/12/30 03:44:55;;;;;;;13.85;9.05;;;;;;;7.33;76.48;99099.41;1692715;84;21452;-41
2020/12/30 03:47:24;;;;;;;13.53;9.38;;;;;;;7.30;76.54;99106.86;1688052;83;21185;-41
2020/12/30 03:49:52;;;;;;;13.20;8.63;;;;;;;7.26;76.72;99096.51;1688393;85;21202;-42
2020/12/30 03:52:20;;;;;;;11.48;8.80;;;;;;;7.28;76.75;99097.52;1716841;83;21209;-41
2020/12/30 03:54:49;;;;;;;12.20;9.28;;;;;;;7.33;76.65;99089.98;1716899;83;21227;-41
2020/12/30 03:57:17;;;;;;;13.38;10.10;;;;;;;7.35;76.68;99095.83;1716839;83;21401;-42
2020/12/30 03:59:47;;;;;;;13.78;10.55;;;;;;;7.35;76.78;99091.78;1719486;82;21060;-42
2020/12/30 04:02:15;;;;;;;12.00;8.85;;;;;;;7.38;76.82;99099.17;1720524;83;21402;-41
2020/12/30 04:04:44;;;;;;;14.60;9.10;;;;;;;7.42;76.71;99097.34;1720245;83;21068;-41
2020/12/30 04:07:12;;;;;;;12.95;10.18;;;;;;;7.53;76.53;99099.55;1756050;80;21439;-42
2020/12/30 04:09:40;;;;;;;12.88;10.35;;;;;;;7.55;76.43;99100.00;1766382;80;22078;-42
2020/12/30 04:12:09;;;;;;;13.70;9.83;;;;;;;7.53;76.40;99102.25;1735605;82;21166;-42
2020/12/30 04:14:37;;;;;;;13.68;9.65;;;;;;;7.49;76.47;99098.67;1734119;82;21192;-42
2020/12/30 04:17:05;;;;;;;12.63;9.40;;;;;;;7.52;76.42;99105.50;1735593;82;21155;-42
2020/12/30 04:19:33;;;;;;;14.15;10.48;;;;;;;7.59;76.22;99100.31;1745983;82;21135;-42
2020/12/30 04:22:02;;;;;;;15.83;10.70;;;;;;;7.58;76.18;99097.95;1754798;81;21285;-42
2020/12/30 04:24:31;;;;;;;16.60;11.90;;;;;;;7.51;76.38;99102.58;1735619;82;21377;-41
2020/12/30 04:27:00;;;;;;;10.68;8.20;;;;;;;7.48;76.57;99099.80;1734272;82;21077;-42
2020/12/30 04:29:28;;;;;;;15.70;10.13;;;;;;;7.42;76.70;99102.74;1735689;82;21020;-42
2020/12/30 04:31:56;;;;;;;15.08;10.88;;;;;;;7.45;76.84;99108.59;1719973;82;21562;-41
2020/12/30 04:34:25;;;;;;;17.75;12.00;;;;;;;7.52;76.84;99102.02;1754807;81;21438;-42
2020/12/30 04:36:53;;;;;;;20.40;13.30;;;;;;;7.55;76.83;99102.70;1735517;81;21598;-42
2020/12/30 04:39:22;;;;;;;17.48;11.45;;;;;;;7.53;76.75;99098.20;1728690;82;21065;-41
2020/12/30 04:41:50;;;;;;;18.37;12.28;;;;;;;7.53;76.85;99102.25;1735758;82;21079;-42
2020/12/30 04:44:18;;;;;;;16.32;12.75;;;;;;;7.59;76.81;99100.88;1766453;80;21570;-42
2020/12/30 04:46:47;;;;;;;18.75;13.60;;;;;;;7.58;76.96;99095.25;1731409;82;21241;-42
2020/12/30 04:49:15;;;;;;;20.25;13.13;;;;;;;7.58;76.99;99101.44;1723819;81;21115;-42
2020/12/30 04:51:43;;;;;;;20.85;12.25;;;;;;;7.55;77.08;99102.11;1753108;81;21158;-42
2020/12/30 04:54:11;;;;;;;18.42;11.78;;;;;;;7.58;77.10;99109.53;1753099;81;21137;-41
2020/12/30 04:56:58;;;;;;;17.27;12.80;;;;;;;7.65;76.95;99119.73;1723904;81;21181;-42
2020/12/30 04:59:44;;;;;;;20.17;13.90;;;;;;;7.65;77.05;99108.94;1753124;81;21355;-42
2020/12/30 05:02:11;;;;;;;17.42;11.48;;;;;;;7.59;77.10;99115.15;1711742;83;21194;-42
2020/12/30 05:04:42;;;;;;;19.60;12.23;;;;;;;7.61;77.10;99113.44;1701455;84;21011;-42
2020/12/30 05:07:12;;;;;;;15.40;10.88;;;;;;;7.63;77.06;99116.02;1682050;85;21214;-42
2020/12/30 05:09:43;;;;;;;18.23;12.88;;;;;;;7.61;77.13;99118.83;1701602;84;21180;-42
2020/12/30 05:12:19;;;;;;;16.97;12.78;;;;;;;7.56;77.38;99125.27;1682171;85;22151;-41
2020/12/30 05:14:47;;;;;;;18.73;12.75;;;;;;;7.55;77.52;99127.73;1701407;84;21195;-42
2020/12/30 05:17:16;;;;;;;16.77;11.43;;;;;;;7.61;77.38;99124.23;1682115;85;21048;-41
2020/12/30 05:19:46;;;;;;;18.23;12.90;;;;;;;7.67;77.10;99121.50;1701478;84;21016;-42
2020/12/30 05:22:15;;;;;;;18.65;14.53;;;;;;;7.61;77.22;99118.83;1682288;85;21625;-42
2020/12/30 05:24:45;;;;;;;20.20;13.10;;;;;;;7.49;77.45;99116.20;1701733;84;21368;-42
2020/12/30 05:27:14;;;;;;;18.52;12.47;;;;;;;7.43;77.67;99123.76;1712062;82;21187;-42
2020/12/30 05:29:48;;;;;;;18.73;14.20;;;;;;;7.41;77.85;99128.70;1712124;83;21151;-42
2020/12/30 05:32:17;;;;;;;23.45;15.35;;;;;;;7.38;77.89;99126.70;1712234;83;22227;-42
2020/12/30 05:34:46;;;;;;;19.35;13.83;;;;;;;7.32;78.07;99132.89;1712108;83;21186;-42
2020/12/30 05:37:14;;;;;;;19.73;13.18;;;;;;;7.30;78.25;99132.47;1712109;83;21417;-42
2020/12/30 05:39:43;;;;;;;19.35;13.75;;;;;;;7.35;78.20;99132.23;1712036;83;21175;-42
2020/12/30 05:42:19;;;;;;;21.00;15.15;;;;;;;7.36;78.28;99135.13;1712119;83;21175;-42
2020/12/30 05:44:54;;;;;;;16.77;12.47;;;;;;;7.36;78.25;99128.38;1712060;83;21135;-41
2020/12/30 05:47:24;;;;;;;19.02;12.58;;;;;;;7.36;78.23;99136.47;1712141;83;21116;-41
2020/12/30 05:49:54;;;;;;;17.20;12.43;;;;;;;7.43;78.08;99129.94;1712365;82;22148;-41
2020/12/30 05:52:24;;;;;;;17.07;12.33;;;;;;;7.46;78.19;99131.70;1712321;82;28310;-42
2020/12/30 05:54:59;;;;;;;17.23;11.15;;;;;;;7.48;78.20;99130.25;1712205;83;21145;-42
2020/12/30 05:57:31;;;;;;;14.98;11.28;;;;;;;7.52;77.99;99133.04;1712047;83;21199;-42
2020/12/30 06:00:13;;;;;;;16.62;11.38;;;;;;;7.56;77.94;99140.09;1746227;81;21188;-42
2020/12/30 06:02:43;;;;;;;16.17;11.65;;;;;;;7.58;77.91;99132.45;1772411;81;22296;-42
2020/12/30 06:05:18;;;;;;;16.12;11.73;;;;;;;7.61;77.95;99124.23;1772348;80;21136;-42
2020/12/30 06:07:49;;;;;;;13.20;9.55;;;;;;;7.64;77.79;99130.30;1772364;81;21183;-42
2020/12/30 06:10:22;;;;;;;12.37;9.05;;;;;;;7.64;77.67;99133.78;1772673;81;21611;-42
2020/12/30 06:13:01;;;;;;;13.45;10.03;;;;;;;7.69;77.60;99137.58;1772328;81;22171;-42
2020/12/30 06:15:32;;;;;;;12.28;9.93;;;;;;;7.71;77.56;99143.96;1772434;81;22123;-42
2020/12/30 06:18:05;;;;;;;15.35;11.53;;;;;;;7.73;77.52;99144.41;1767220;81;21630;-41
2020/12/30 06:20:39;;;;;;;15.50;10.32;;;;;;;7.75;77.41;99138.88;1772406;81;21140;-41
2020/12/30 06:23:17;;;;;;;12.20;9.10;;;;;;;7.78;77.18;99136.06;1772377;81;21136;-42
2020/12/30 06:25:47;;;;;;;13.48;10.63;;;;;;;7.87;76.89;99135.34;1772341;80;21148;-42
2020/12/30 06:28:20;;;;;;;14.43;10.30;;;;;;;7.83;76.94;99127.72;1772404;81;21134;-42
2020/12/30 06:30:50;;;;;;;13.00;10.10;;;;;;;7.78;76.93;99137.42;1772231;81;21137;-42
2020/12/30 06:33:24;;;;;;;11.17;8.47;;;;;;;7.71;77.12;99130.47;1772465;81;21195;-42
2020/12/30 06:35:56;;;;;;;11.33;9.38;;;;;;;7.66;77.16;99120.72;1772341;81;21168;-42
2020/12/30 06:38:27;;;;;;;14.00;9.73;;;;;;;7.61;77.33;99123.66;1772214;80;21172;-42
2020/12/30 06:41:06;;;;;;;10.43;8.73;;;;;;;7.54;77.60;99120.00;1772442;80;21200;-42
2020/12/30 06:43:48;;;;;;;12.03;9.33;;;;;;;7.46;77.84;99117.66;1772305;81;21205;-41
2020/12/30 06:46:27;;;;;;;12.73;9.05;;;;;;;7.41;77.97;99114.66;1771772;81;21171;-42
2020/12/30 06:49:08;;;;;;;15.18;10.78;;;;;;;7.36;78.04;99124.89;1771735;81;21777;-42
2020/12/30 06:51:40;;;;;;;10.45;8.85;;;;;;;7.27;78.39;99116.96;1772474;81;21112;-42
2020/12/30 06:54:09;;;;;;;11.93;8.83;;;;;;;7.25;78.54;99121.14;1772400;81;21603;-42
2020/12/30 06:56:46;;;;;;;11.50;9.23;;;;;;;7.25;78.58;99119.80;1772106;81;21140;-42
2020/12/30 06:59:26;;;;;;;13.05;8.78;;;;;;;7.23;78.70;99128.22;1769307;81;21030;-42
2020/12/30 07:02:04;;;;;;;10.28;7.50;;;;;;;7.22;79.00;99128.55;1742668;82;21623;-42
2020/12/30 07:07:21;;;;;;;9.83;7.97;;;;;;;7.35;78.97;99124.70;1808551;78;22723;-41
2020/12/30 07:09:49;;;;;;;10.03;7.78;;;;;;;7.36;78.96;99122.98;1783817;80;22047;-41
2020/12/30 07:14:48;;;;;;;9.83;7.20;;;;;;;7.51;78.88;99116.63;1775360;79;21907;-41
2020/12/30 07:17:19;;;;;;;11.75;8.75;;;;;;;7.51;78.71;99120.67;1748370;82;21566;-41
2020/12/30 07:19:48;;;;;;;13.13;9.05;;;;;;;7.58;78.60;99112.78;1748473;82;22128;-41
2020/12/30 07:22:16;;;;;;;12.33;8.40;;;;;;;7.61;78.41;99108.04;1723423;82;21136;-41
2020/12/30 07:24:53;;;;;;;10.72;8.15;;;;;;;7.64;78.20;99108.16;1717658;82;21342;-41
2020/12/30 07:27:24;;;;;;;9.83;8.38;;;;;;;7.68;77.98;99118.47;1718472;83;21055;-41
2020/12/30 07:29:53;;;;;;;11.48;8.25;;;;;;;7.66;78.16;99111.83;1718451;83;21004;-41
2020/12/30 07:32:21;;;;;;;10.98;8.40;;;;;;;7.63;78.15;99117.37;1718475;82;21193;-41
2020/12/30 07:34:52;;;;;;;12.95;8.33;;;;;;;7.64;78.25;99130.30;1718491;82;21056;-41
2020/12/30 07:37:21;;;;;;;8.65;6.92;;;;;;;7.69;78.05;99125.44;1713878;83;21593;-41
2020/12/30 07:39:50;;;;;;;10.20;8.28;;;;;;;7.69;77.97;99122.74;1718446;83;21428;-41
2020/12/30 07:42:19;;;;;;;10.25;7.85;;;;;;;7.66;78.10;99113.97;1718502;83;21197;-41
2020/12/30 07:44:53;;;;;;;9.85;7.87;;;;;;;7.67;78.07;99117.45;1718381;83;21192;-41
2020/12/30 07:47:23;;;;;;;10.95;8.60;;;;;;;7.73;78.02;99118.78;1718401;83;22155;-41
2020/12/30 07:49:53;;;;;;;10.65;8.10;;;;;;;7.75;78.02;99124.59;1718576;83;21430;-41
2020/12/30 07:52:21;;;;;;;10.20;7.92;;;;;;;7.72;78.02;99129.34;1690785;83;21374;-41
2020/12/30 07:54:49;;;;;;;11.48;7.95;;;;;;;7.67;78.04;99122.85;1690483;83;21174;-41
2020/12/30 07:57:18;;;;;;;9.93;7.58;;;;;;;7.66;77.94;99127.46;1718534;83;21267;-41
2020/12/30 07:59:51;;;;;;;7.40;5.65;;;;;;;7.71;77.70;99133.17;1718572;83;21190;-41
2020/12/30 08:02:19;;;;;;;13.22;8.03;;;;;;;7.64;77.89;99130.30;1718488;83;21135;-41
2020/12/30 08:04:50;;;;;;;10.53;7.60;;;;;;;7.57;78.14;99140.88;1718360;83;21145;-41
2020/12/30 08:07:18;;;;;;;11.93;7.25;;;;;;;7.56;78.15;99145.49;1690791;83;21147;-41
2020/12/30 08:09:46;;;;;;;10.30;7.90;;;;;;;7.61;78.09;99136.36;1718521;83;21251;-41
2020/12/30 08:12:17;;;;;;;11.28;8.23;;;;;;;7.63;78.10;99136.26;1718551;83;21597;-41
2020/12/30 08:14:46;;;;;;;10.90;7.85;;;;;;;7.64;78.03;99136.48;1719029;83;21157;-41
2020/12/30 08:17:15;;;;;;;9.95;7.22;;;;;;;7.62;78.01;99131.20;1719271;83;21178;-41
2020/12/30 08:19:48;;;;;;;8.90;7.20;;;;;;;7.61;78.09;99133.67;1719415;83;21585;-41
2020/12/30 08:22:18;;;;;;;13.08;7.47;;;;;;;7.70;77.83;99129.69;1719221;83;21381;-41
2020/12/30 08:24:54;;;;;;;10.32;7.95;;;;;;;7.72;77.77;99132.05;1713261;83;21071;-41
2020/12/30 08:27:30;;;;;;;10.20;8.40;;;;;;;7.73;77.85;99141.16;1718674;83;21151;-41
2020/12/30 08:30:01;;;;;;;9.13;6.78;;;;;;;7.74;77.76;99141.94;1718721;83;21056;-41
2020/12/30 08:32:44;;;;;;;9.30;7.08;;;;;;;7.74;77.58;99143.30;1718708;83;21158;-41
2020/12/30 08:35:18;;;;;;;8.70;7.15;;;;;;;7.76;77.47;99148.55;1718737;83;21427;-41
2020/12/30 08:38:01;;;;;;;10.35;8.05;;;;;;;7.72;77.65;99144.19;1718692;83;21129;-41
2020/12/30 08:40:30;;;;;;;13.03;8.70;;;;;;;7.72;77.73;99132.05;1718720;83;21173;-41
2020/12/30 08:43:13;;;;;;;10.95;8.05;;;;;;;7.72;77.76;99129.34;1718879;83;21170;-41
2020/12/30 08:46:07;;;;;;;10.15;7.80;;;;;;;7.78;77.67;99127.97;1718658;83;21146;-41
2020/12/30 08:48:52;;;;;;;10.25;7.58;;;;;;;7.87;77.44;99131.29;1689868;84;21381;-41
2020/12/30 08:51:33;;;;;;;9.00;7.47;;;;;;;7.80;77.15;99122.44;1689675;84;21134;-41
2020/12/30 08:54:15;;;;;;;10.40;7.53;;;;;;;7.71;77.34;99127.77;1689957;84;21593;-42
2020/12/30 08:56:45;;;;;;;10.03;7.53;;;;;;;7.72;77.34;99121.25;1689805;84;21649;-42
2020/12/30 08:59:26;;;;;;;10.00;7.90;;;;;;;7.73;77.31;99118.78;1690102;84;21138;-42
2020/12/30 09:01:57;;;;;;;8.78;7.72;;;;;;;7.72;77.28;99126.09;1689694;84;21428;-42
2020/12/30 09:04:27;;;;;;;11.65;8.83;;;;;;;7.69;77.42;99117.91;1663559;84;21193;-42
2020/12/30 09:06:57;;;;;;;9.78;7.83;;;;;;;7.66;77.61;99125.33;1689989;84;21182;-42
2020/12/30 09:09:26;;;;;;;13.62;7.78;;;;;;;7.64;77.63;99116.25;1689722;84;21152;-42
2020/12/30 09:11:55;;;;;;;10.40;8.13;;;;;;;7.71;77.65;99111.02;1689762;84;21186;-42
2020/12/30 09:14:25;;;;;;;11.65;8.30;;;;;;;7.75;77.59;99109.76;1682556;84;21219;-42
2020/12/30 09:16:58;;;;;;;11.25;8.05;;;;;;;7.76;77.58;99111.33;1676711;85;21994;-42
2020/12/30 09:19:26;;;;;;;13.08;9.23;;;;;;;7.73;77.60;99099.33;1676861;85;21610;-42
2020/12/30 09:22:10;;;;;;;13.35;8.88;;;;;;;7.79;77.49;99095.81;1676827;85;21163;-42
2020/12/30 09:24:40;;;;;;;14.00;8.70;;;;;;;7.86;77.28;99089.23;1676754;85;21040;-42
2020/12/30 09:27:22;;;;;;;14.07;8.83;;;;;;;7.84;77.31;99094.97;1677041;85;22293;-42
2020/12/30 09:30:14;;;;;;;10.35;7.80;;;;;;;7.82;77.25;99099.16;1676595;85;21190;-42
2020/12/30 09:32:45;;;;;;;10.70;8.03;;;;;;;7.79;77.42;99089.06;1676619;85;21152;-42
2020/12/30 09:35:15;;;;;;;14.23;8.55;;;;;;;7.85;77.34;99090.36;1676779;85;21127;-42
2020/12/30 09:37:51;;;;;;;13.60;10.08;;;;;;;7.84;77.27;99092.27;1676671;85;21191;-42
2020/12/30 09:40:20;;;;;;;13.15;9.60;;;;;;;7.83;77.21;99081.84;1676705;85;21389;-42
2020/12/30 09:42:50;;;;;;;11.08;8.73;;;;;;;7.79;77.30;99081.73;1693074;84;21218;-42
2020/12/30 09:45:20;;;;;;;12.03;8.60;;;;;;;7.83;77.30;99079.14;1679191;85;21190;-42
2020/12/30 09:47:48;;;;;;;11.08;8.75;;;;;;;7.89;77.04;99079.08;1696979;84;21159;-42
2020/12/30 09:50:21;;;;;;;11.05;8.53;;;;;;;7.91;77.08;99077.39;1705195;84;21139;-42
2020/12/30 09:52:51;;;;;;;13.80;9.88;;;;;;;7.90;77.02;99079.30;1704982;83;22205;-42
2020/12/30 09:55:19;;;;;;;;;;;;;;;7.90;77.14;99075.25;1707540;83;21431;-42
2020/12/30 09:57:47;;;;;;;11.95;8.90;;;;;;;7.94;77.16;99068.02;1705124;83;20247;-42
2020/12/30 10:00:18;;;;;;;12.03;8.95;;;;;;;8.00;77.04;99072.59;1705030;84;21163;-42
2020/12/30 10:02:46;;;;;;;;;;;;;;;8.07;76.61;99074.13;1707614;84;21163;-42
2020/12/30 10:05:15;;;;;;;13.93;10.00;;;;;;;8.03;76.56;99065.95;1705242;84;21199;-42
2020/12/30 10:07:45;;;;;;;11.93;8.65;;;;;;;7.93;76.81;99062.99;1705021;84;21183;-42
2020/12/30 10:10:13;;;;;;;14.65;9.63;;;;;;;7.96;76.73;99054.97;1705109;84;21123;-42
2020/12/30 10:12:41;;;;;;;15.55;9.93;;;;;;;8.04;76.65;99051.30;1705083;84;21189;-42
2020/12/30 10:15:11;;;;;;;16.02;11.10;;;;;;;8.08;76.46;99046.80;1714683;83;21170;-42
2020/12/30 10:17:40;;;;;;;13.08;9.83;;;;;;;8.04;76.57;99040.50;1718726;83;21371;-42
2020/12/30 10:20:10;;;;;;;12.10;8.73;;;;;;;8.02;76.59;99040.66;1718503;83;21063;-42
2020/12/30 10:22:39;;;;;;;11.30;8.70;;;;;;;8.00;76.39;99024.80;1718566;83;20964;-42
2020/12/30 10:25:09;;;;;;;12.15;8.58;;;;;;;8.04;76.39;99027.57;1713762;83;21036;-42
2020/12/30 10:27:37;;;;;;;14.53;9.73;;;;;;;7.99;76.37;99019.17;1718572;83;21154;-42
2020/12/30 10:30:09;;;;;;;14.78;10.23;;;;;;;8.07;76.24;99030.94;1718610;83;21267;-42
2020/12/30 10:32:37;;;;;;;13.32;9.43;;;;;;;8.01;76.31;99032.33;1718420;83;21193;-42
2020/12/30 10:35:05;;;;;;;14.50;9.03;;;;;;;7.99;76.33;99028.62;1718600;83;21012;-42
2020/12/30 10:37:35;;;;;;;12.03;9.43;;;;;;;8.04;76.12;99029.70;1718646;83;21166;-42
2020/12/30 10:40:05;;;;;;;12.00;8.85;;;;;;;8.04;76.17;99032.97;1718574;83;21174;-42
2020/12/30 10:42:34;;;;;;;12.43;9.08;;;;;;;8.00;76.13;99030.19;1718539;83;21656;-42
2020/12/30 10:45:03;;;;;;;12.15;8.80;;;;;;;7.92;76.06;99017.67;1718616;83;21158;-42
2020/12/30 10:47:35;;;;;;;11.55;8.08;;;;;;;7.88;76.30;99016.02;1718711;83;21200;-42
2020/12/30 10:50:03;;;;;;;12.13;8.65;;;;;;;7.90;76.38;99010.48;1718525;83;21115;-42
2020/12/30 10:52:32;;;;;;;11.83;8.28;;;;;;;7.89;76.45;99007.55;1718507;83;21174;-42
2020/12/30 10:55:01;;;;;;;12.23;8.70;;;;;;;7.87;76.48;99004.44;1718793;83;21633;-42
2020/12/30 10:57:29;;;;;;;12.25;8.50;;;;;;;7.86;76.65;98994.77;1718427;83;21194;-42
2020/12/30 10:59:58;;;;;;;9.68;7.95;;;;;;;7.93;76.67;98996.30;1718621;83;21024;-42
2020/12/30 11:02:26;;;;;;;10.63;7.55;;;;;;;8.04;76.45;98991.91;1718527;83;20992;-42
2020/12/30 11:04:57;;;;;;;13.65;9.40;;;;;;;8.08;76.14;98979.86;1718549;83;21171;-42
2020/12/30 11:07:27;;;;;;;;;;;;;;;8.06;76.16;98985.61;1721019;83;21279;-42
2020/12/30 11:09:58;;;;;;;13.40;8.50;;;;;;;8.04;76.09;98989.20;1718600;83;20956;-42
2020/12/30 11:12:27;;;;;;;11.55;7.03;;;;;;;7.95;76.30;98983.78;1718535;83;21178;-42
2020/12/30 11:14:55;;;;;;;11.20;8.33;;;;;;;8.00;76.10;98990.27;1718405;83;21198;-42
2020/12/30 11:17:24;;;;;;;11.35;8.83;;;;;;;8.08;75.98;98977.16;1718509;83;21170;-42
2020/12/30 11:19:53;;;;;;;12.88;9.88;;;;;;;8.09;75.95;98976.79;1718507;83;21408;-42
2020/12/30 11:22:22;;;;;;;;;;;;;;;8.09;76.05;98978.14;1721143;83;21179;-42
2020/12/30 11:24:50;;;;;;;9.98;7.60;;;;;;;8.06;76.06;98973.45;1718447;83;20544;-42
2020/12/30 11:27:19;;;;;;;10.55;7.42;;;;;;;7.99;76.12;98969.83;1718530;83;21158;-42
2020/12/30 11:29:47;;;;;;;10.50;8.63;;;;;;;8.04;75.87;98971.66;1718418;83;21192;-42
2020/12/30 11:32:16;;;;;;;13.45;9.08;;;;;;;8.09;75.70;98968.69;1718533;83;21193;-42
2020/12/30 11:34:46;;;;;;;12.25;8.58;;;;;;;8.07;75.86;98978.29;1718436;83;21162;-42
2020/12/30 11:37:14;;;;;;;11.68;7.62;;;;;;;8.02;76.01;98973.95;1718639;83;21146;-42
2020/12/30 11:39:42;;;;;;;14.63;9.38;;;;;;;8.06;76.04;98974.81;1718494;83;21182;-42
2020/12/30 11:42:10;;;;;;;12.00;8.65;;;;;;;7.98;75.96;98959.59;1718586;83;21159;-42
2020/12/30 11:44:40;;;;;;;16.27;9.90;;;;;;;8.09;76.00;98970.05;1718650;83;21056;-42
2020/12/30 11:47:13;;;;;;;14.23;10.40;;;;;;;8.11;76.07;98981.85;1718702;83;21354;-42
2020/12/30 11:49:42;;;;;;;14.30;9.65;;;;;;;8.11;75.96;98973.75;1718678;83;21170;-42
2020/12/30 11:52:11;;;;;;;13.00;8.95;;;;;;;8.12;75.89;98982.07;1718595;83;21063;-42
2020/12/30 11:54:40;;;;;;;12.93;9.35;;;;;;;8.13;75.71;98987.09;1718485;83;21190;-42